Sagittarian — WCY5210 — position and weather

sailwx.info

Track history (hours):
 
Tides and Currents Weather Stations Pressure Air Temp Water Temp Dewpoint Dewpoint Depression Visibility Wind Speed Wind Dir Waves Ship Positions

Sagittarian

Owner: TAURUS MARINE, SAN FRANCISCO, CA. More information available from US FCC via Universal Licensing System and Coast Guard Vessel Documentation Center.

Last reported at 2016-Apr-27 14:34 UTC. Time now 2016-Apr-30 13:06 UTC.
Position N 37°46' W 122°23'.

; draft 3 m.

Type: Towing. MMSI: 366969510.

Date/timePositionNaut miles runAvg speedWind from/ knotsBaromVisibWave heightAir tempDewpointWater temp
2016-Apr-27 14:34N 37°46' W 122°23'2 2.0
2016-Apr-27 13:34N 37°48' W 122°21'2 1.7
2016-Apr-27 12:34N 37°46' W 122°22'0 0.2
2016-Apr-27 11:34N 37°46' W 122°21'2 1.6
2016-Apr-27 10:34N 37°46' W 122°19'2 1.6
2016-Apr-27 09:34N 37°46' W 122°21'0 0.0
2016-Apr-27 08:34N 37°46' W 122°21'1 1.5
2016-Apr-27 07:33N 37°46' W 122°20'1 1.5
2016-Apr-27 06:33N 37°46' W 122°21'0 0.1
2016-Apr-27 05:33N 37°46' W 122°21'0 0.3
2016-Apr-27 04:34N 37°46' W 122°21'2 1.6
2016-Apr-27 03:33N 37°46' W 122°19'2 1.7
2016-Apr-27 02:34N 37°46' W 122°21'0 0.1
2016-Apr-27 01:34N 37°46' W 122°21'0 0.1
2016-Apr-27 00:34N 37°46' W 122°21'0 0.2
2016-Apr-26 23:33N 37°46' W 122°21'3 0.1
2016-Apr-26 01:33N 37°49' W 122°24'6 5.8
2016-Apr-26 00:33N 37°49' W 122°31'3 2.6
2016-Apr-25 23:33N 37°50' W 122°28'6 5.9
2016-Apr-25 22:33N 37°55' W 122°25'0 0.5
2016-Apr-25 21:33N 37°55' W 122°25'9 8.7
2016-Apr-25 20:33N 37°47' W 122°23'0 0.0
2016-Apr-25 08:08N 37°46' W 122°23'6 9.9
2016-Apr-25 07:33N 37°52' W 122°24'3 3.3
2016-Apr-25 06:33N 37°55' W 122°26'5 4.8
2016-Apr-25 05:33N 37°51' W 122°24'4 0.2
2016-Apr-24 09:17N 37°46' W 122°23'6 8.9
2016-Apr-24 08:33N 37°53' W 122°25'9 9.2
2016-Apr-24 07:33N 38°02' W 122°22'10 0.5
2016-Apr-23 11:18N 38°02' W 122°08'6 6.8
2016-Apr-23 10:28N 38°04' W 122°15'9 9.8
2016-Apr-23 09:31N 37°59' W 122°25'6 5.9
2016-Apr-23 08:33N 37°54' W 122°25'7 7.2
2016-Apr-23 07:33N 37°46' W 122°23'0 0.0
2016-Apr-22 17:05N 37°46' W 122°23'4 7.1
2016-Apr-22 16:33N 37°50' W 122°23'5 4.2
2016-Apr-22 15:25N 37°55' W 122°25'0 0.2
2016-Apr-22 14:31N 37°55' W 122°26'1 0.6
2016-Apr-22 13:33N 37°54' W 122°26'8 7.7
2016-Apr-22 12:33N 37°47' W 122°23'0 0.0
2016-Apr-22 04:33N 37°46' W 122°23'9 9.0
2016-Apr-22 03:32N 37°55' W 122°26'1 1.4
2016-Apr-22 02:33N 37°55' W 122°25'8 8.2
2016-Apr-22 01:33N 37°46' W 122°23'0 0.0
2016-Apr-21 04:34N 37°46' W 122°23'0 0.1
2016-Apr-21 03:34N 37°46' W 122°23'0 0.0
2016-Apr-20 16:32N 37°46' W 122°23'0 0.1
2016-Apr-20 15:33N 37°47' W 122°23'0 0.1
2016-Apr-20 14:23N 37°46' W 122°23'6 7.7
2016-Apr-20 13:33N 37°53' W 122°24'6 4.8
2016-Apr-20 12:18N 37°59' W 122°26'6 8.2
2016-Apr-20 11:33N 38°03' W 122°20'5 4.5
2016-Apr-20 10:33N 38°04' W 122°14'1 0.5
2016-Apr-20 09:33N 38°04' W 122°15'10 9.5
2016-Apr-20 08:33N 37°59' W 122°25'10 9.7
2016-Apr-20 07:33N 37°49' W 122°23'  
Track history (hours):
 
Tides and Currents Weather Stations Pressure Air Temp Water Temp Dewpoint Dewpoint Depression Visibility Wind Speed Wind Dir Waves Ship Positions

Sagittarian

Owner: TAURUS MARINE, SAN FRANCISCO, CA. More information available from US FCC via Universal Licensing System and Coast Guard Vessel Documentation Center.

Last reported at 2016-Apr-27 14:34 UTC. Time now 2016-Apr-30 13:06 UTC.
Position N 37°46' W 122°23'.

; draft 3 m.

Type: Towing. MMSI: 366969510.

Date/timePositionNaut miles runAvg speedWind from/ knotsBaromVisibWave heightAir tempDewpointWater temp
2016-Apr-27 14:34N 37°46' W 122°23'2 2.0
2016-Apr-27 13:34N 37°48' W 122°21'2 1.7
2016-Apr-27 12:34N 37°46' W 122°22'0 0.2
2016-Apr-27 11:34N 37°46' W 122°21'2 1.6
2016-Apr-27 10:34N 37°46' W 122°19'2 1.6
2016-Apr-27 09:34N 37°46' W 122°21'0 0.0
2016-Apr-27 08:34N 37°46' W 122°21'1 1.5
2016-Apr-27 07:33N 37°46' W 122°20'1 1.5
2016-Apr-27 06:33N 37°46' W 122°21'0 0.1
2016-Apr-27 05:33N 37°46' W 122°21'0 0.3
2016-Apr-27 04:34N 37°46' W 122°21'2 1.6
2016-Apr-27 03:33N 37°46' W 122°19'2 1.7
2016-Apr-27 02:34N 37°46' W 122°21'0 0.1
2016-Apr-27 01:34N 37°46' W 122°21'0 0.1
2016-Apr-27 00:34N 37°46' W 122°21'0 0.2
2016-Apr-26 23:33N 37°46' W 122°21'3 0.1
2016-Apr-26 01:33N 37°49' W 122°24'6 5.8
2016-Apr-26 00:33N 37°49' W 122°31'3 2.6
2016-Apr-25 23:33N 37°50' W 122°28'6 5.9
2016-Apr-25 22:33N 37°55' W 122°25'0 0.5
2016-Apr-25 21:33N 37°55' W 122°25'9 8.7
2016-Apr-25 20:33N 37°47' W 122°23'0 0.0
2016-Apr-25 08:08N 37°46' W 122°23'6 9.9
2016-Apr-25 07:33N 37°52' W 122°24'3 3.3
2016-Apr-25 06:33N 37°55' W 122°26'5 4.8
2016-Apr-25 05:33N 37°51' W 122°24'4 0.2
2016-Apr-24 09:17N 37°46' W 122°23'6 8.9
2016-Apr-24 08:33N 37°53' W 122°25'9 9.2
2016-Apr-24 07:33N 38°02' W 122°22'10 0.5
2016-Apr-23 11:18N 38°02' W 122°08'6 6.8
2016-Apr-23 10:28N 38°04' W 122°15'9 9.8
2016-Apr-23 09:31N 37°59' W 122°25'6 5.9
2016-Apr-23 08:33N 37°54' W 122°25'7 7.2
2016-Apr-23 07:33N 37°46' W 122°23'0 0.0
2016-Apr-22 17:05N 37°46' W 122°23'4 7.1
2016-Apr-22 16:33N 37°50' W 122°23'5 4.2
2016-Apr-22 15:25N 37°55' W 122°25'0 0.2
2016-Apr-22 14:31N 37°55' W 122°26'1 0.6
2016-Apr-22 13:33N 37°54' W 122°26'8 7.7
2016-Apr-22 12:33N 37°47' W 122°23'0 0.0
2016-Apr-22 04:33N 37°46' W 122°23'9 9.0
2016-Apr-22 03:32N 37°55' W 122°26'1 1.4
2016-Apr-22 02:33N 37°55' W 122°25'8 8.2
2016-Apr-22 01:33N 37°46' W 122°23'0 0.0
2016-Apr-21 04:34N 37°46' W 122°23'0 0.1
2016-Apr-21 03:34N 37°46' W 122°23'0 0.0
2016-Apr-20 16:32N 37°46' W 122°23'0 0.1
2016-Apr-20 15:33N 37°47' W 122°23'0 0.1
2016-Apr-20 14:23N 37°46' W 122°23'6 7.7
2016-Apr-20 13:33N 37°53' W 122°24'6 4.8
2016-Apr-20 12:18N 37°59' W 122°26'6 8.2
2016-Apr-20 11:33N 38°03' W 122°20'5 4.5
2016-Apr-20 10:33N 38°04' W 122°14'1 0.5
2016-Apr-20 09:33N 38°04' W 122°15'10 9.5
2016-Apr-20 08:33N 37°59' W 122°25'10 9.7
2016-Apr-20 07:33N 37°49' W 122°23'  

Dump ship's entire track history